Home PIREPS Pireps

Flight BEL3158

  • Submitted By: Tran Tri Nam
  • Departure Airport: Malpensa International Airport (LIMC)
  • Arrival Airport: Bruxelles National (EBBR)
  • Aircraft: BAE AVRO RJ1 (OO-DWB)
  • Flight Time: 01.44
  • Date Submitted: 12/01/2017
  • Status: Accepted
Flight Details
Gross Revenue:
(81 load / € 90.00 per unit
€ 7,290.00
Fuel Cost:
(3188 fuel used @ 4.5 / unit)
€ 14,346.00

Additional Log Information:

View Log

Aircraft Used in flight is QWSim Avro RJ100 - Brussels Airlines - Config: S
18:38 Brakes are On
18:47 Brakes are Released
18:49 Brakes are On
18:52 Brakes are Released
18:52 Brakes are On
18:52 Brakes are Released
18:57 Overspeed
18:57 Recovered from Overspeed
18:57 Stalling
18:57 Recovered from Stall
18:58 Brakes are On
18:59 Brakes are Released
19:01 You Took off @ 143 Knots and Flaps at Position 1
Departure Weather
LIMC 121720Z 13006KT 2500 FZDZ BR BKN005 OVC015 M00/M01 Q1016 BECMG 1200 SN NOSIGrn
19:01 Landing Gear Up @ 148 Knots and 810 Feet
19:04 Above FL100 you need to switch of the landing lights
19:45 Overspeed
19:45 Stalling
19:45 Recovered from Stall
19:45 Recovered from Overspeed
19:45 Overspeed
19:45 Stalling
19:45 Recovered from Stall
19:45 Recovered from Overspeed
19:45 Overspeed
19:45 Stalling
19:45 Recovered from Stall
19:45 Recovered from Overspeed
19:50 Stalling
19:50 Recovered from Stall
19:50 Stalling
19:50 Overspeed
19:50 Recovered from Stall
19:50 Recovered from Overspeed
19:50 Stalling
19:50 Recovered from Stall
19:50 Overspeed
19:50 Recovered from Overspeed
20:11 Below 10000 feet you are not allowed to go over 250 knots
20:18 Landing Gear Down @ 160 Knots and 1900 Feet
20:20 You Landed @ 116 Knots and with -250 Vertical Speed
Arrival Weather
EBBR 121850Z 18013KT 9000 -RA FEW009 BKN012 04/03 Q0991 TEMPO 4000 RADZ BKN007rn
20:20 Paused
20:23 Unpaused
20:24 Brakes are On
20:26 Brussels Bel-Track1.0.1.2

Route Map

Corporate About Us Our Team Vacancies Information Fleet Route Network Rules and Regulations Operations Flight Schedules Event Center Tours Partners IVAO Vatsim Acars dev FSCB

fb Users Online Belgium Serge Van Laethem, Belgium Glenn Sonck, United Kingdom David Chenery, Belgium Marc Claus,
5 Pilot(s) and 135 Guest(s) Online
CMS by phpVMS - Design by Crazycreatives.com - Copyright © 2018 - Brussels Airlines Virtual